Time;durP1;ratioP1;P1;durP2;ratioP2;P2;SDS_P1;SDS_P2;PMS_P1;PMS_P2;Temp;Humidity;BMP_temperature;BMP_pressure;BME280_temperature;BME280_humidity;BME280_pressure;Samples;Min_cycle;Max_cycle;Signal;HPM_P1;HPM_P2
2024/02/17 00:01:58;;;;;;;18.97;5.07;;;11.50;99.90;;;;;;7308191;19;21020;-79
2024/02/17 00:04:24;;;;;;;20.97;5.33;;;11.60;99.90;;;;;;7284431;19;20189;-79
2024/02/17 00:06:50;;;;;;;15.10;4.93;;;11.50;99.90;;;;;;7285778;19;20208;-78
2024/02/17 00:09:16;;;;;;;21.87;5.27;;;11.50;99.90;;;;;;7283509;19;20737;-78
2024/02/17 00:11:42;;;;;;;17.63;5.10;;;11.40;99.90;;;;;;7284822;19;20189;-79
2024/02/17 00:14:07;;;;;;;15.90;4.83;;;11.40;99.90;;;;;;7282899;19;20574;-79
2024/02/17 00:16:33;;;;;;;17.50;4.93;;;11.50;99.90;;;;;;7283118;19;20204;-78
2024/02/17 00:18:59;;;;;;;18.57;4.73;;;11.30;99.90;;;;;;7306599;19;20667;-78
2024/02/17 00:21:25;;;;;;;16.73;4.80;;;11.30;99.90;;;;;;7284909;19;20185;-79
2024/02/17 00:23:50;;;;;;;15.03;5.00;;;11.30;99.90;;;;;;7285207;19;20189;-77
2024/02/17 00:26:19;;;;;;;16.03;5.17;;;11.20;99.90;;;;;;7284769;19;20232;-77
2024/02/17 00:28:45;;;;;;;15.77;4.80;;;11.20;99.90;;;;;;7283466;19;20192;-78
2024/02/17 00:31:11;;;;;;;17.53;5.30;;;11.10;99.90;;;;;;7284080;19;20535;-78
2024/02/17 00:33:37;;;;;;;21.67;5.33;;;11.10;99.90;;;;;;7284892;19;20185;-78
2024/02/17 00:36:04;;;;;;;18.47;5.03;;;10.90;99.90;;;;;;7285975;19;20637;-78
2024/02/17 00:38:30;;;;;;;18.93;5.17;;;10.90;99.90;;;;;;7305026;19;20181;-78
2024/02/17 00:40:56;;;;;;;20.70;5.53;;;10.80;99.90;;;;;;7286238;19;20177;-79
2024/02/17 00:43:22;;;;;;;20.50;5.77;;;10.80;99.90;;;;;;7283192;19;20992;-79
2024/02/17 00:45:48;;;;;;;15.67;5.20;;;10.80;99.90;;;;;;7283531;19;20188;-78
2024/02/17 00:48:15;;;;;;;13.30;5.00;;;10.70;99.90;;;;;;7283071;19;20192;-78
2024/02/17 00:50:41;;;;;;;19.10;5.73;;;10.70;99.90;;;;;;7282779;19;20184;-79
2024/02/17 00:53:07;;;;;;;22.03;5.40;;;10.70;99.90;;;;;;7282790;19;20632;-78
2024/02/17 00:55:33;;;;;;;19.60;5.67;;;10.60;99.90;;;;;;7287662;19;20194;-78
2024/02/17 00:58:01;;;;;;;15.37;5.50;;;10.60;99.90;;;;;;7304351;19;20240;-79
2024/02/17 01:00:27;;;;;;;19.10;5.83;;;10.60;99.90;;;;;;7284337;19;20561;-80
2024/02/17 01:02:52;;;;;;;20.20;5.77;;;10.60;99.90;;;;;;7282164;19;20653;-79
2024/02/17 01:05:18;;;;;;;19.00;5.83;;;10.50;99.90;;;;;;7281827;19;20539;-78
2024/02/17 01:07:44;;;;;;;20.90;5.70;;;10.60;99.90;;;;;;7282785;19;20200;-78
2024/02/17 01:10:10;;;;;;;20.13;5.37;;;10.60;99.90;;;;;;7281830;19;20683;-78
2024/02/17 01:12:36;;;;;;;22.53;5.23;;;10.60;99.90;;;;;;7283488;19;20184;-79
2024/02/17 01:15:02;;;;;;;22.73;5.40;;;10.50;99.90;;;;;;7297026;19;20194;-78
2024/02/17 01:17:28;;;;;;;17.63;4.87;;;10.50;99.90;;;;;;7301495;19;20188;-79
2024/02/17 01:19:54;;;;;;;22.97;5.33;;;10.40;99.90;;;;;;7282135;19;20747;-79
2024/02/17 01:22:19;;;;;;;21.17;5.67;;;10.40;99.90;;;;;;7281578;19;20257;-79
2024/02/17 01:24:45;;;;;;;24.37;5.40;;;10.40;99.90;;;;;;7282688;19;20556;-78
2024/02/17 01:27:11;;;;;;;14.20;4.63;;;10.40;99.90;;;;;;7282070;19;20242;-78
2024/02/17 01:29:36;;;;;;;22.07;5.27;;;10.40;99.90;;;;;;7283490;19;20621;-79
2024/02/17 01:32:03;;;;;;;25.03;5.47;;;10.40;99.90;;;;;;7294178;19;20675;-78
2024/02/17 01:34:28;;;;;;;23.07;5.43;;;10.40;99.90;;;;;;7304934;19;20656;-79
2024/02/17 01:36:54;;;;;;;22.90;5.37;;;10.40;99.90;;;;;;7282532;19;20184;-78
2024/02/17 01:39:20;;;;;;;21.00;6.07;;;10.40;99.90;;;;;;7282441;19;20646;-79
2024/02/17 01:41:46;;;;;;;22.27;5.43;;;10.50;99.90;;;;;;7281947;19;20262;-79
2024/02/17 01:44:12;;;;;;;19.23;5.70;;;10.40;99.90;;;;;;7283001;19;20305;-79
2024/02/17 01:46:38;;;;;;;23.77;5.53;;;10.50;99.90;;;;;;7281607;19;20181;-79
2024/02/17 01:49:05;;;;;;;21.23;4.87;;;10.50;99.90;;;;;;7283600;19;20660;-79
2024/02/17 01:51:31;;;;;;;16.20;5.33;;;10.50;99.90;;;;;;7303574;19;20216;-78
2024/02/17 01:53:58;;;;;;;20.43;4.87;;;10.40;99.90;;;;;;7286532;19;20185;-79
2024/02/17 01:56:26;;;;;;;17.00;5.50;;;10.50;99.90;;;;;;7281946;19;20305;-79
2024/02/17 01:58:53;;;;;;;19.47;4.73;;;10.50;99.90;;;;;;7285917;19;20212;-79
2024/02/17 02:01:19;;;;;;;22.93;4.90;;;10.40;99.90;;;;;;7284424;19;20592;-80
2024/02/17 02:03:45;;;;;;;18.50;4.93;;;10.50;99.90;;;;;;7284372;19;20204;-79
2024/02/17 02:06:20;;;;;;;22.10;5.17;;;10.50;99.90;;;;;;7283522;19;20188;-79
2024/02/17 02:08:49;;;;;;;25.23;5.20;;;10.50;99.90;;;;;;7281850;19;20619;-78
2024/02/17 02:11:15;;;;;;;21.47;4.67;;;10.40;99.90;;;;;;7282848;19;20586;-78
2024/02/17 02:13:41;;;;;;;19.00;5.00;;;10.50;99.90;;;;;;7280582;19;20196;-78
2024/02/17 02:16:07;;;;;;;19.17;4.73;;;10.40;99.90;;;;;;7280816;19;20226;-79
2024/02/17 02:18:33;;;;;;;16.17;4.33;;;10.40;99.90;;;;;;7285015;19;20654;-78
2024/02/17 02:20:59;;;;;;;23.70;4.70;;;10.30;99.90;;;;;;7304361;19;20256;-79
2024/02/17 02:23:25;;;;;;;15.90;4.20;;;10.20;99.90;;;;;;7282436;19;20187;-79
2024/02/17 02:25:51;;;;;;;21.10;4.67;;;10.20;99.90;;;;;;7282046;19;20204;-78
2024/02/17 02:28:17;;;;;;;20.03;4.20;;;10.30;99.90;;;;;;7280677;19;20196;-79
2024/02/17 02:30:42;;;;;;;18.93;4.60;;;10.30;99.90;;;;;;7282824;19;20202;-78
2024/02/17 02:33:08;;;;;;;20.83;4.20;;;10.30;99.90;;;;;;7281580;19;20190;-77
2024/02/17 02:35:34;;;;;;;17.63;4.40;;;10.30;99.90;;;;;;7281361;19;20188;-77
2024/02/17 02:37:59;;;;;;;17.87;4.97;;;10.30;99.90;;;;;;7303905;19;20711;-79
2024/02/17 02:40:25;;;;;;;21.17;4.83;;;10.30;99.90;;;;;;7279813;19;20714;-78
2024/02/17 02:42:51;;;;;;;23.77;4.87;;;10.20;99.90;;;;;;7281965;19;20243;-78
2024/02/17 02:45:17;;;;;;;16.77;4.20;;;10.20;99.90;;;;;;7281338;19;20192;-78
2024/02/17 02:47:44;;;;;;;21.07;4.67;;;10.20;99.90;;;;;;7281748;19;20198;-78
2024/02/17 02:50:10;;;;;;;18.57;4.90;;;10.20;99.90;;;;;;7279761;19;20184;-78
2024/02/17 02:52:36;;;;;;;23.50;4.53;;;10.20;99.90;;;;;;7279843;19;20200;-77
2024/02/17 02:55:02;;;;;;;18.10;4.40;;;10.20;99.90;;;;;;7297545;19;20183;-77
2024/02/17 02:57:27;;;;;;;23.97;4.80;;;10.20;99.90;;;;;;7292107;19;20698;-79
2024/02/17 02:59:53;;;;;;;21.20;4.63;;;10.20;99.90;;;;;;7278515;19;20994;-78
2024/02/17 03:02:19;;;;;;;19.70;4.67;;;10.20;99.90;;;;;;7278749;19;20185;-78
2024/02/17 03:04:45;;;;;;;23.37;5.20;;;10.20;99.90;;;;;;7278190;19;20253;-79
2024/02/17 03:07:11;;;;;;;24.00;5.10;;;10.30;99.90;;;;;;7279320;19;20610;-78
2024/02/17 03:09:37;;;;;;;24.70;4.47;;;10.30;99.90;;;;;;7283910;19;20195;-78
2024/02/17 03:12:03;;;;;;;19.63;4.10;;;10.20;99.90;;;;;;7297158;19;20198;-78
2024/02/17 03:14:29;;;;;;;25.93;4.67;;;10.20;99.90;;;;;;7306267;19;20572;-80
2024/02/17 03:16:54;;;;;;;24.33;5.03;;;10.30;99.90;;;;;;7287364;19;20191;-80
2024/02/17 03:19:20;;;;;;;24.60;4.33;;;10.40;99.90;;;;;;7286485;19;20202;-79
2024/02/17 03:21:46;;;;;;;22.67;4.80;;;10.40;99.90;;;;;;7288299;19;20216;-79
2024/02/17 03:24:12;;;;;;;23.17;4.53;;;10.50;99.90;;;;;;7287508;19;20256;-79
2024/02/17 03:26:37;;;;;;;18.90;4.70;;;10.60;99.90;;;;;;7286307;19;20732;-79
2024/02/17 03:29:03;;;;;;;23.20;4.20;;;10.60;99.90;;;;;;7291447;19;20188;-79
2024/02/17 03:31:29;;;;;;;22.63;4.40;;;10.60;99.90;;;;;;7309724;19;20655;-79
2024/02/17 03:33:55;;;;;;;17.20;3.90;;;10.50;99.90;;;;;;7287236;19;20263;-79
2024/02/17 03:36:21;;;;;;;24.90;4.87;;;10.50;99.90;;;;;;7290593;19;20196;-79
2024/02/17 03:38:47;;;;;;;21.33;4.07;;;10.60;99.90;;;;;;7286466;19;20203;-79
2024/02/17 03:41:13;;;;;;;21.17;4.10;;;10.60;99.90;;;;;;7286218;19;20207;-79
2024/02/17 03:43:38;;;;;;;18.20;4.27;;;10.40;99.90;;;;;;7286419;19;20190;-79
2024/02/17 03:46:04;;;;;;;21.80;4.20;;;10.40;99.90;;;;;;7286544;19;20181;-78
2024/02/17 03:48:30;;;;;;;20.03;3.87;;;10.40;99.90;;;;;;7309612;19;20184;-79
2024/02/17 03:50:55;;;;;;;17.00;3.90;;;10.40;99.90;;;;;;7285551;19;20184;-79
2024/02/17 03:53:21;;;;;;;19.83;3.90;;;10.50;99.90;;;;;;7286896;19;20196;-79
2024/02/17 03:55:47;;;;;;;20.57;4.40;;;10.50;99.90;;;;;;7284803;19;20262;-79
2024/02/17 03:58:13;;;;;;;27.53;4.60;;;10.50;99.90;;;;;;7284202;19;20541;-79
2024/02/17 04:00:38;;;;;;;20.77;4.03;;;10.50;99.90;;;;;;7286995;19;20188;-78
2024/02/17 04:03:05;;;;;;;19.70;3.40;;;10.40;99.90;;;;;;7285338;19;20193;-78
2024/02/17 04:05:30;;;;;;;16.87;3.57;;;10.40;99.90;;;;;;7307851;19;20183;-79
2024/02/17 04:07:56;;;;;;;22.40;3.60;;;10.40;99.90;;;;;;7286636;19;20186;-78
2024/02/17 04:10:22;;;;;;;23.80;3.97;;;10.40;99.90;;;;;;7285608;19;20217;-78
2024/02/17 04:12:48;;;;;;;17.77;3.10;;;10.50;99.90;;;;;;7284173;19;20188;-78
2024/02/17 04:15:14;;;;;;;18.53;3.73;;;10.50;99.90;;;;;;7284408;19;20344;-78
2024/02/17 04:17:40;;;;;;;19.30;3.90;;;10.60;99.90;;;;;;7284814;19;20203;-78
2024/02/17 04:20:06;;;;;;;18.37;3.63;;;10.50;99.90;;;;;;7282728;19;20181;-78
2024/02/17 04:22:32;;;;;;;24.10;3.60;;;10.50;99.90;;;;;;7303242;19;20187;-78
2024/02/17 04:24:58;;;;;;;17.03;3.17;;;10.60;99.90;;;;;;7296567;19;20183;-79
2024/02/17 04:27:23;;;;;;;17.67;3.17;;;10.60;99.90;;;;;;7285693;19;20292;-79
2024/02/17 04:29:50;;;;;;;14.70;3.47;;;10.70;99.90;;;;;;7284940;19;20191;-79
2024/02/17 04:32:15;;;;;;;22.83;3.30;;;10.70;99.90;;;;;;7283933;19;20192;-79
2024/02/17 04:34:41;;;;;;;17.60;3.80;;;10.70;99.90;;;;;;7284813;19;20248;-79
2024/02/17 04:37:07;;;;;;;19.30;3.40;;;10.70;99.90;;;;;;7283603;19;20679;-79
2024/02/17 04:39:33;;;;;;;22.27;3.50;;;10.80;99.90;;;;;;7296919;19;20652;-79
2024/02/17 04:41:59;;;;;;;17.00;3.50;;;10.80;99.90;;;;;;7305431;19;20187;-79
2024/02/17 04:44:25;;;;;;;18.87;3.17;;;10.80;99.90;;;;;;7284227;19;20208;-79
2024/02/17 04:46:51;;;;;;;17.50;3.40;;;10.80;99.90;;;;;;7283495;19;20192;-79
2024/02/17 04:49:16;;;;;;;21.17;3.27;;;10.80;99.90;;;;;;7285724;19;20200;-80
2024/02/17 04:51:42;;;;;;;18.07;2.93;;;10.70;99.90;;;;;;7282991;19;20240;-78
2024/02/17 04:54:08;;;;;;;20.70;3.60;;;10.80;99.90;;;;;;7286231;19;20184;-79
2024/02/17 04:56:34;;;;;;;14.50;2.63;;;10.70;99.90;;;;;;7283216;19;20185;-79
2024/02/17 04:59:00;;;;;;;14.33;2.80;;;10.80;99.90;;;;;;7307655;19;20187;-79
2024/02/17 05:01:26;;;;;;;19.90;3.00;;;10.90;99.90;;;;;;7294676;19;20181;-79
2024/02/17 05:03:52;;;;;;;19.23;2.90;;;10.80;99.90;;;;;;7299854;19;20213;-77
2024/02/17 05:06:18;;;;;;;17.07;3.20;;;10.80;99.90;;;;;;7292320;19;20199;-79
2024/02/17 05:08:47;;;;;;;15.27;2.60;;;10.70;99.90;;;;;;7288928;19;20187;-79
2024/02/17 05:11:13;;;;;;;19.50;3.07;;;10.70;99.90;;;;;;7289418;19;20180;-79
2024/02/17 05:13:38;;;;;;;18.57;2.97;;;10.80;99.90;;;;;;7292991;19;20185;-79
2024/02/17 05:16:06;;;;;;;20.53;3.13;;;10.90;99.90;;;;;;7292610;19;20189;-79
2024/02/17 05:18:32;;;;;;;21.37;3.07;;;10.90;99.90;;;;;;7316375;19;20191;-80
2024/02/17 05:20:59;;;;;;;19.60;3.13;;;11.00;99.90;;;;;;7293413;19;20181;-79
2024/02/17 05:23:25;;;;;;;16.87;2.87;;;11.00;99.90;;;;;;7285700;19;20313;-78
2024/02/17 05:25:51;;;;;;;19.80;3.20;;;11.00;99.90;;;;;;7285741;19;20652;-80
2024/02/17 05:28:17;;;;;;;13.93;2.90;;;11.00;99.90;;;;;;7283677;19;20193;-80
2024/02/17 05:30:43;;;;;;;16.03;3.00;;;11.10;99.90;;;;;;7280127;19;20203;-79
2024/02/17 05:33:08;;;;;;;16.47;3.33;;;11.00;99.90;;;;;;7283396;19;20184;-80
2024/02/17 05:35:34;;;;;;;14.73;2.50;;;11.00;99.90;;;;;;7282484;19;20674;-79
2024/02/17 05:38:00;;;;;;;16.87;3.20;;;11.00;99.90;;;;;;7304446;19;20214;-80
2024/02/17 05:40:25;;;;;;;20.03;3.43;;;11.00;99.90;;;;;;7282979;19;20276;-80
2024/02/17 05:42:51;;;;;;;18.47;3.10;;;11.10;99.90;;;;;;7282661;19;20200;-80
2024/02/17 05:45:17;;;;;;;14.43;2.97;;;11.10;99.90;;;;;;7282629;19;20203;-80
2024/02/17 05:47:43;;;;;;;18.27;2.93;;;11.10;99.90;;;;;;7283935;19;20195;-80
2024/02/17 05:50:08;;;;;;;12.73;2.77;;;11.20;99.90;;;;;;7281327;19;21021;-79
2024/02/17 05:52:34;;;;;;;18.00;2.90;;;11.20;99.90;;;;;;7282621;19;20188;-79
2024/02/17 05:55:01;;;;;;;18.20;2.90;;;11.20;99.90;;;;;;7304646;19;20667;-79
2024/02/17 05:57:27;;;;;;;13.33;2.57;;;11.20;99.90;;;;;;7280757;19;20200;-80
2024/02/17 05:59:52;;;;;;;17.97;2.80;;;11.20;99.90;;;;;;7281968;19;20213;-79
2024/02/17 06:02:18;;;;;;;16.93;2.80;;;11.30;99.90;;;;;;7283983;19;20203;-80
2024/02/17 06:04:44;;;;;;;14.63;2.60;;;11.30;99.90;;;;;;7281328;19;20192;-79
2024/02/17 06:07:10;;;;;;;14.80;2.47;;;11.20;99.90;;;;;;7282159;19;20200;-80
2024/02/17 06:09:36;;;;;;;15.47;3.27;;;11.20;99.90;;;;;;7280727;19;20184;-79
2024/02/17 06:12:01;;;;;;;19.07;3.20;;;11.20;99.90;;;;;;7304106;19;20192;-80
2024/02/17 06:14:27;;;;;;;13.90;2.87;;;11.20;99.90;;;;;;7283331;19;20203;-80
2024/02/17 06:16:53;;;;;;;15.93;2.80;;;11.30;99.90;;;;;;7281363;19;20182;-80
2024/02/17 06:22:23;;;;;;;14.50;2.73;;;11.20;99.90;;;;;;7178356;19;2004555;-80
2024/02/17 06:24:48;;;;;;;17.70;2.63;;;11.10;99.90;;;;;;7281419;19;20197;-80
2024/02/17 06:27:14;;;;;;;15.77;3.00;;;11.10;99.90;;;;;;7280056;19;20647;-80
2024/02/17 06:29:44;;;;;;;13.60;2.90;;;11.10;99.90;;;;;;7282725;19;20208;-80
2024/02/17 06:32:10;;;;;;;10.60;2.40;;;11.10;99.90;;;;;;7282153;19;20722;-79
2024/02/17 06:34:35;;;;;;;15.50;2.80;;;11.10;99.90;;;;;;7281779;19;20197;-79
2024/02/17 06:37:03;;;;;;;14.97;2.70;;;11.20;99.90;;;;;;7302230;19;20185;-79
2024/02/17 06:39:29;;;;;;;12.60;2.70;;;11.20;99.90;;;;;;7282716;19;20297;-80
2024/02/17 06:41:55;;;;;;;13.43;2.33;;;11.20;99.90;;;;;;7281429;19;20233;-80
2024/02/17 06:44:25;;;;;;;21.13;2.93;;;11.20;99.90;;;;;;7287761;19;20191;-79
2024/02/17 06:46:53;;;;;;;15.13;2.63;;;11.20;99.90;;;;;;7290559;19;20251;-79
2024/02/17 06:49:19;;;;;;;21.27;3.00;;;11.30;99.90;;;;;;7289299;19;20986;-79
2024/02/17 06:51:45;;;;;;;18.67;2.70;;;11.30;99.90;;;;;;7288952;19;20211;-80
2024/02/17 06:54:11;;;;;;;18.73;2.83;;;11.30;99.90;;;;;;7287724;19;20196;-80
2024/02/17 06:56:36;;;;;;;8.97;2.63;;;11.30;99.90;;;;;;7287322;19;20646;-79
2024/02/17 06:59:02;;;;;;;17.10;3.13;;;11.40;99.90;;;;;;7309995;19;20197;-79
2024/02/17 07:01:29;;;;;;;16.40;2.53;;;11.40;99.90;;;;;;7288559;19;20797;-79
2024/02/17 07:03:55;;;;;;;13.83;2.67;;;11.30;99.90;;;;;;7288180;19;20189;-79
2024/02/17 07:06:21;;;;;;;15.57;2.97;;;11.30;99.90;;;;;;7287816;19;20226;-78
2024/02/17 07:08:48;;;;;;;18.50;3.30;;;11.40;99.90;;;;;;7287904;19;20556;-79
2024/02/17 07:11:17;;;;;;;17.13;2.77;;;11.40;99.90;;;;;;7287471;19;20203;-81
2024/02/17 07:13:43;;;;;;;16.37;2.83;;;11.50;99.90;;;;;;7287757;19;20208;-79
2024/02/17 07:16:10;;;;;;;15.77;2.90;;;11.50;99.90;;;;;;7286510;19;20195;-77
2024/02/17 07:18:37;;;;;;;14.13;2.80;;;11.60;99.90;;;;;;7286346;19;20184;-77
2024/02/17 07:21:05;;;;;;;19.33;3.00;;;11.60;99.90;;;;;;7301357;19;20220;-76
2024/02/17 07:23:31;;;;;;;12.90;3.30;;;11.60;99.90;;;;;;7307915;19;20212;-78
2024/02/17 07:25:57;;;;;;;15.17;2.83;;;11.60;99.90;;;;;;7287081;19;20193;-78
2024/02/17 07:28:23;;;;;;;15.57;2.70;;;11.50;99.90;;;;;;7285686;19;20205;-78
2024/02/17 07:30:49;;;;;;;13.57;2.90;;;11.50;99.90;;;;;;7285919;19;20636;-78
2024/02/17 07:33:16;;;;;;;19.20;3.13;;;11.60;99.90;;;;;;7285775;19;20197;-78
2024/02/17 07:35:44;;;;;;;16.33;2.77;;;11.70;99.90;;;;;;7286437;19;20196;-79
2024/02/17 07:38:11;;;;;;;16.30;3.30;;;11.80;99.90;;;;;;7284272;19;20195;-79
2024/02/17 07:40:40;;;;;;;14.43;2.90;;;11.90;99.90;;;;;;7285686;19;20191;-78
2024/02/17 07:43:06;;;;;;;16.87;2.97;;;11.90;99.90;;;;;;7285175;19;20188;-77
2024/02/17 07:45:32;;;;;;;11.67;2.50;;;12.00;99.90;;;;;;7307395;19;20189;-78
2024/02/17 07:47:58;;;;;;;20.93;3.40;;;12.00;99.90;;;;;;7289597;19;20599;-78
2024/02/17 07:50:24;;;;;;;19.57;3.33;;;12.10;99.90;;;;;;7285386;19;20182;-78
2024/02/17 07:52:50;;;;;;;20.40;3.40;;;12.10;99.90;;;;;;7287064;19;20193;-79
2024/02/17 07:55:15;;;;;;;15.17;3.27;;;12.10;99.90;;;;;;7283708;19;20226;-79
2024/02/17 07:57:41;;;;;;;17.73;3.27;;;12.10;99.90;;;;;;7285517;19;20198;-79
2024/02/17 08:00:07;;;;;;;15.97;2.77;;;12.10;99.90;;;;;;7283221;19;20190;-80
2024/02/17 08:02:33;;;;;;;17.73;3.47;;;12.20;99.90;;;;;;7300582;19;20256;-78
2024/02/17 08:04:59;;;;;;;19.13;3.10;;;12.10;99.90;;;;;;7300795;19;20192;-81
2024/02/17 08:07:24;;;;;;;17.97;3.17;;;12.10;99.90;;;;;;7298471;19;20193;-80
2024/02/17 08:09:50;;;;;;;14.43;3.10;;;12.30;99.90;;;;;;7298924;19;20344;-81
2024/02/17 08:12:16;;;;;;;14.97;3.67;;;12.30;99.90;;;;;;7299175;19;20185;-80
2024/02/17 08:14:42;;;;;;;17.60;3.50;;;12.30;99.90;;;;;;7285243;19;20186;-80
2024/02/17 08:17:08;;;;;;;17.60;3.50;;;12.30;99.90;;;;;;7285723;19;20193;-79
2024/02/17 08:19:34;;;;;;;15.53;3.37;;;12.40;99.90;;;;;;7300545;19;20186;-78
2024/02/17 08:22:00;;;;;;;18.67;3.27;;;12.50;99.90;;;;;;7306404;19;20237;-79
2024/02/17 08:24:26;;;;;;;15.03;3.50;;;12.50;99.90;;;;;;7283867;19;20657;-78
2024/02/17 08:26:51;;;;;;;13.33;3.10;;;12.50;99.90;;;;;;7286042;19;20191;-80
2024/02/17 08:29:20;;;;;;;23.00;5.03;;;12.60;99.90;;;;;;7284426;19;20252;-80
2024/02/17 08:31:52;;;;;;;16.67;4.67;;;12.60;99.90;;;;;;7285202;19;20182;-79
2024/02/17 08:34:18;;;;;;;15.23;4.03;;;12.60;99.90;;;;;;7282697;19;20314;-80
2024/02/17 08:36:44;;;;;;;23.87;4.10;;;12.60;99.90;;;;;;7282961;19;20189;-80
2024/02/17 08:39:10;;;;;;;13.97;3.30;;;12.70;99.90;;;;;;7284057;19;20207;-79
2024/02/17 08:41:36;;;;;;;19.17;4.13;;;12.80;99.90;;;;;;7284637;19;20192;-79
2024/02/17 08:44:02;;;;;;;14.37;3.27;;;12.90;99.90;;;;;;7306381;19;20189;-80
2024/02/17 08:46:28;;;;;;;17.50;3.67;;;12.90;99.90;;;;;;7283308;19;20211;-80
2024/02/17 08:48:53;;;;;;;15.50;3.30;;;12.90;99.90;;;;;;7283723;19;20175;-79
2024/02/17 08:51:19;;;;;;;14.57;3.93;;;12.70;99.90;;;;;;7282481;19;20189;-80
2024/02/17 08:53:45;;;;;;;16.07;3.80;;;12.70;99.90;;;;;;7283308;19;20672;-80
2024/02/17 08:56:10;;;;;;;16.33;3.63;;;12.70;99.90;;;;;;7282622;19;20206;-80
2024/02/17 08:58:36;;;;;;;16.43;3.90;;;12.80;99.90;;;;;;7284551;19;20186;-79
2024/02/17 09:01:02;;;;;;;17.77;3.90;;;12.90;99.90;;;;;;7305256;19;20193;-81
2024/02/17 09:03:28;;;;;;;14.27;3.23;;;12.90;99.90;;;;;;7283479;19;20198;-78
2024/02/17 09:05:54;;;;;;;16.23;4.10;;;13.00;99.90;;;;;;7281009;19;20206;-79
2024/02/17 09:08:19;;;;;;;17.20;4.07;;;13.10;99.90;;;;;;7282863;19;20182;-79
2024/02/17 09:10:45;;;;;;;18.53;3.90;;;13.20;99.90;;;;;;7280641;19;20203;-78
2024/02/17 09:13:11;;;;;;;18.93;4.17;;;13.40;99.90;;;;;;7283650;19;20191;-78
2024/02/17 09:15:37;;;;;;;17.93;3.60;;;13.40;99.90;;;;;;7281575;19;20710;-80
2024/02/17 09:18:02;;;;;;;17.70;4.00;;;13.40;99.90;;;;;;7306483;19;20191;-79
2024/02/17 09:20:28;;;;;;;17.03;3.87;;;13.50;99.90;;;;;;7283370;19;20203;-79
2024/02/17 09:22:54;;;;;;;18.20;4.30;;;13.60;99.90;;;;;;7283775;19;20269;-78
2024/02/17 09:25:20;;;;;;;18.50;5.10;;;13.70;99.90;;;;;;7283249;19;20823;-79
2024/02/17 09:27:46;;;;;;;19.97;5.23;;;13.70;99.90;;;;;;7282118;19;20685;-78
2024/02/17 09:30:12;;;;;;;18.37;4.53;;;14.00;99.90;;;;;;7283417;19;20251;-78
2024/02/17 09:32:38;;;;;;;16.23;4.73;;;14.10;99.90;;;;;;7282637;19;20693;-78
2024/02/17 09:35:05;;;;;;;16.70;3.90;;;14.20;99.90;;;;;;7294489;19;20295;-78
2024/02/17 09:37:30;;;;;;;16.50;4.10;;;14.30;99.90;;;;;;7304275;19;20243;-79
2024/02/17 09:39:56;;;;;;;15.93;4.03;;;14.30;99.90;;;;;;7284047;19;20739;-78
2024/02/17 09:42:22;;;;;;;18.97;3.73;;;14.30;99.90;;;;;;7282521;19;20543;-79
2024/02/17 09:44:48;;;;;;;16.10;3.80;;;14.30;99.90;;;;;;7282148;19;20192;-79
2024/02/17 09:47:15;;;;;;;14.57;3.67;;;14.30;99.90;;;;;;7279815;19;20258;-78
2024/02/17 09:49:42;;;;;;;14.90;3.70;;;14.50;99.90;;;;;;7282472;19;20196;-79
2024/02/17 09:52:10;;;;;;;16.67;3.80;;;14.60;99.90;;;;;;7282598;19;20196;-78
2024/02/17 09:54:37;;;;;;;14.67;3.70;;;14.70;99.90;;;;;;7282249;19;20648;-77
2024/02/17 09:57:05;;;;;;;10.63;3.30;;;14.70;99.90;;;;;;7302049;19;20187;-77
2024/02/17 09:59:31;;;;;;;16.83;3.97;;;14.80;99.90;;;;;;7303977;19;20197;-79
2024/02/17 10:01:57;;;;;;;15.37;4.00;;;14.80;99.90;;;;;;7283457;19;20663;-79
2024/02/17 10:04:23;;;;;;;14.27;3.50;;;15.00;99.90;;;;;;7281727;19;20964;-79
2024/02/17 10:06:59;;;;;;;14.87;3.70;;;15.10;99.90;;;;;;7283633;19;20192;-79
2024/02/17 10:09:27;;;;;;;14.30;4.03;;;15.10;99.90;;;;;;7282517;19;21048;-78
2024/02/17 10:11:53;;;;;;;15.03;3.63;;;15.10;99.90;;;;;;7282237;19;20585;-79
2024/02/17 10:14:22;;;;;;;18.17;3.80;;;15.20;99.90;;;;;;7280653;19;20193;-79
2024/02/17 10:16:55;;;;;;;19.17;3.67;;;15.40;99.90;;;;;;7282395;19;20260;-79
2024/02/17 10:19:21;;;;;;;18.83;4.20;;;15.80;99.90;;;;;;7289274;19;20627;-79
2024/02/17 10:21:47;;;;;;;17.53;3.80;;;15.90;99.90;;;;;;7290406;19;20209;-79
2024/02/17 10:24:13;;;;;;;10.83;2.93;;;16.20;99.90;;;;;;7289173;19;20198;-79
2024/02/17 10:26:39;;;;;;;15.40;3.30;;;16.50;99.90;;;;;;7290051;19;21033;-78
2024/02/17 10:29:06;;;;;;;15.77;3.70;;;17.20;99.90;;;;;;7295069;19;20194;-77
2024/02/17 10:31:31;;;;;;;14.47;3.13;;;17.50;99.90;;;;;;7311651;19;20200;-78
2024/02/17 10:33:57;;;;;;;13.83;2.90;;;17.80;99.90;;;;;;7288949;19;20206;-78
2024/02/17 10:36:25;;;;;;;12.57;3.63;;;18.00;99.90;;;;;;7289296;19;20185;-79
2024/02/17 10:38:54;;;;;;;13.77;3.90;;;18.00;99.90;;;;;;7289345;19;20551;-79
2024/02/17 10:41:20;;;;;;;21.33;3.33;;;17.90;99.90;;;;;;7287100;19;20256;-80
2024/02/17 10:43:47;;;;;;;14.33;3.20;;;18.10;99.90;;;;;;7285892;19;20199;-79
2024/02/17 10:46:18;;;;;;;19.60;3.83;;;18.50;99.90;;;;;;7286496;19;20259;-79
2024/02/17 10:48:58;;;;;;;14.93;3.17;;;19.10;99.90;;;;;;7287401;19;20191;-81
2024/02/17 10:51:25;;;;;;;16.80;3.80;;;19.40;99.90;;;;;;7287694;19;20965;-80
2024/02/17 10:53:59;;;;;;;17.47;3.60;;;19.00;99.90;;;;;;7287314;19;20190;-80
2024/02/17 10:56:25;;;;;;;20.00;4.93;;;18.90;99.90;;;;;;7285544;19;20227;-82
2024/02/17 10:58:55;;;;;;;17.00;4.67;;;19.20;99.90;;;;;;7287214;19;20214;-80
2024/02/17 11:01:29;;;;;;;16.53;4.33;;;19.40;99.90;;;;;;7286341;19;20675;-80
2024/02/17 11:03:56;;;;;;;18.07;4.83;;;19.50;99.90;;;;;;7288581;19;20556;-79
2024/02/17 11:06:24;;;;;;;16.20;3.87;;;19.50;99.90;;;;;;7286468;19;20629;-79
2024/02/17 11:08:51;;;;;;;15.53;4.07;;;19.20;99.90;;;;;;7285498;19;20614;-79
2024/02/17 11:11:24;;;;;;;16.57;4.03;;;19.10;99.90;;;;;;7286975;19;20193;-81
2024/02/17 11:13:51;;;;;;;20.73;4.17;;;19.00;99.90;;;;;;7292381;19;20189;-80
2024/02/17 11:16:17;;;;;;;16.30;3.93;;;18.90;99.90;;;;;;7295752;19;21783;-79
2024/02/17 11:18:50;;;;;;;15.50;3.93;;;18.80;99.90;;;;;;7295160;19;20218;-79
2024/02/17 11:21:37;;;;;;;14.47;3.87;;;18.90;99.90;;;;;;7296451;19;20189;-79
2024/02/17 11:24:03;;;;;;;11.00;3.23;;;19.80;99.90;;;;;;7290539;19;20193;-79
2024/02/17 11:26:31;;;;;;;18.17;3.90;;;19.70;99.90;;;;;;7287227;19;20202;-80
2024/02/17 11:28:56;;;;;;;12.80;3.80;;;19.60;99.90;;;;;;7285633;19;20189;-80
2024/02/17 11:31:28;;;;;;;14.13;3.90;;;19.70;99.90;;;;;;7285237;19;20181;-81
2024/02/17 11:34:00;;;;;;;16.13;4.30;;;19.70;99.90;;;;;;7288217;19;20198;-80
2024/02/17 11:36:30;;;;;;;15.00;4.70;;;19.70;99.90;;;;;;7286687;19;20881;-80
2024/02/17 11:38:56;;;;;;;15.07;4.00;;;19.50;99.90;;;;;;7288109;19;20699;-80
2024/02/17 11:41:24;;;;;;;15.57;4.03;;;19.70;99.90;;;;;;7288384;19;20197;-79
2024/02/17 11:43:50;;;;;;;19.10;3.93;;;20.60;99.90;;;;;;7287436;19;20194;-80
2024/02/17 11:46:19;;;;;;;18.63;3.87;;;20.70;99.90;;;;;;7288024;19;20187;-80
2024/02/17 11:48:45;;;;;;;17.97;4.10;;;20.60;99.90;;;;;;7284481;19;20539;-80
2024/02/17 11:51:20;;;;;;;21.60;4.30;;;20.60;99.90;;;;;;7287808;19;20190;-80
2024/02/17 11:53:47;;;;;;;17.83;4.03;;;20.50;99.90;;;;;;7287636;19;20203;-80
2024/02/17 11:56:14;;;;;;;16.83;3.93;;;20.30;99.90;;;;;;7286161;19;20199;-80
2024/02/17 11:58:39;;;;;;;17.07;3.80;;;20.40;99.90;;;;;;7288815;19;20201;-80
2024/02/17 12:01:05;;;;;;;13.10;3.17;;;20.90;99.90;;;;;;7290718;19;20587;-78
2024/02/17 12:03:31;;;;;;;14.03;3.33;;;21.40;99.90;;;;;;7309200;19;20222;-80
2024/02/17 12:06:00;;;;;;;14.87;3.13;;;21.30;99.90;;;;;;7287522;19;20209;-82
2024/02/17 12:08:30;;;;;;;13.20;3.70;;;21.30;99.90;;;;;;7285559;19;20643;-81
2024/02/17 12:10:56;;;;;;;15.10;3.30;;;20.30;99.90;;;;;;7285318;19;20203;-81
2024/02/17 12:13:23;;;;;;;13.90;3.27;;;20.00;99.90;;;;;;7286933;19;20192;-81
2024/02/17 12:15:50;;;;;;;11.17;3.37;;;20.50;99.90;;;;;;7285252;19;20217;-80
2024/02/17 12:18:19;;;;;;;16.97;3.43;;;21.50;99.90;;;;;;7285434;19;20685;-80
2024/02/17 12:20:44;;;;;;;13.53;3.73;;;21.80;99.90;;;;;;7286292;19;20193;-81
2024/02/17 12:23:10;;;;;;;15.70;4.40;;;21.90;99.90;;;;;;7285470;19;20810;-80
2024/02/17 12:25:38;;;;;;;14.63;4.10;;;21.70;99.90;;;;;;7284922;19;20205;-79
2024/02/17 12:28:07;;;;;;;14.80;4.10;;;21.40;99.90;;;;;;7302539;19;20223;-78
2024/02/17 12:30:46;;;;;;;18.13;4.17;;;21.80;99.90;;;;;;7305720;19;20198;-80
2024/02/17 12:33:11;;;;;;;13.90;4.27;;;21.60;99.90;;;;;;7183427;19;2004425;-81
2024/02/17 12:35:45;;;;;;;15.43;3.97;;;21.60;99.90;;;;;;7284419;19;20561;-80